createdAt,value
2018-08-09T00:00:46.036Z,24.10
2018-08-09T00:03:15.084Z,24.10
2018-08-09T00:05:44.191Z,24.00
2018-08-09T00:08:13.168Z,24.00
2018-08-09T00:10:42.377Z,24.00
2018-08-09T00:13:11.809Z,23.90
2018-08-09T00:15:40.957Z,24.00
2018-08-09T00:18:10.066Z,23.90
2018-08-09T00:20:39.021Z,23.70
2018-08-09T00:23:08.128Z,23.70
2018-08-09T00:25:37.160Z,23.80
2018-08-09T00:28:06.869Z,23.70
2018-08-09T00:30:35.897Z,23.70
2018-08-09T00:33:05.260Z,23.70
2018-08-09T00:35:34.396Z,23.70
2018-08-09T00:38:03.445Z,23.60
2018-08-09T00:40:32.677Z,23.60
2018-08-09T00:43:01.697Z,23.50
2018-08-09T00:45:30.905Z,23.40
2018-08-09T00:47:59.907Z,23.40
2018-08-09T00:50:28.889Z,23.30
2018-08-09T00:52:58.526Z,23.30
2018-08-09T00:55:28.125Z,23.30
2018-08-09T00:57:57.121Z,23.20
2018-08-09T01:00:26.228Z,23.30
2018-08-09T01:02:55.273Z,23.20
2018-08-09T01:05:24.592Z,23.10
2018-08-09T01:07:53.653Z,23.10
2018-08-09T01:10:22.664Z,23.10
2018-08-09T01:12:51.877Z,23.10
2018-08-09T01:15:21.033Z,23.10
2018-08-09T01:20:17.407Z,22.90
2018-08-09T01:22:46.384Z,22.90
2018-08-09T01:25:15.382Z,22.90
2018-08-09T01:27:44.356Z,22.80
2018-08-09T01:30:13.433Z,22.70
2018-08-09T01:32:42.499Z,22.50
2018-08-09T01:35:11.509Z,22.40
2018-08-09T01:37:40.479Z,22.30
2018-08-09T01:40:09.541Z,22.30
2018-08-09T01:42:49.814Z,22.30
2018-08-09T01:45:18.797Z,22.20
2018-08-09T01:47:47.793Z,22.20
2018-08-09T01:50:16.802Z,22.20
2018-08-09T01:52:46.167Z,22.30
2018-08-09T01:55:15.173Z,22.30
2018-08-09T01:57:44.200Z,22.20
2018-08-09T02:00:13.184Z,22.10
2018-08-09T02:02:42.189Z,22.00
2018-08-09T02:05:11.377Z,22.00
2018-08-09T02:07:40.355Z,21.80
2018-08-09T02:10:09.454Z,21.70
2018-08-09T02:12:38.440Z,21.80
2018-08-09T02:15:07.421Z,21.80
2018-08-09T02:17:36.580Z,21.80
2018-08-09T02:20:05.594Z,21.80
2018-08-09T02:22:34.649Z,21.80
2018-08-09T02:25:03.728Z,21.80
2018-08-09T02:27:32.785Z,21.80
2018-08-09T02:30:01.825Z,21.80
2018-08-09T02:32:32.951Z,21.80
2018-08-09T02:35:02.188Z,21.70
2018-08-09T02:37:31.280Z,21.70
2018-08-09T02:40:00.398Z,21.70
2018-08-09T02:42:29.443Z,21.60
2018-08-09T02:44:58.421Z,21.60
2018-08-09T02:47:27.504Z,21.70
2018-08-09T02:49:56.502Z,21.80
2018-08-09T02:52:25.512Z,21.70
2018-08-09T02:54:54.580Z,21.70
2018-08-09T02:57:23.645Z,21.60
2018-08-09T02:59:52.629Z,21.50
2018-08-09T03:02:21.628Z,21.50
2018-08-09T03:04:50.641Z,21.50
2018-08-09T03:07:19.695Z,21.60
2018-08-09T03:09:48.799Z,21.60
2018-08-09T03:12:17.874Z,21.60
2018-08-09T03:14:46.960Z,21.60
2018-08-09T03:17:16.042Z,21.60
2018-08-09T03:19:45.083Z,21.60
2018-08-09T03:22:14.040Z,21.50
2018-08-09T03:24:43.037Z,21.50
2018-08-09T03:27:12.012Z,21.40
2018-08-09T03:29:40.984Z,21.40
2018-08-09T03:32:09.985Z,21.40
2018-08-09T03:34:38.996Z,21.30
2018-08-09T03:37:07.992Z,21.30
2018-08-09T03:39:36.993Z,21.30
2018-08-09T03:42:06.049Z,21.10
2018-08-09T03:44:35.061Z,21.00
2018-08-09T03:47:04.049Z,21.00
2018-08-09T03:49:33.050Z,20.90
2018-08-09T03:52:02.784Z,21.00
2018-08-09T03:54:31.764Z,20.90
2018-08-09T03:57:00.981Z,21.00
2018-08-09T03:59:29.973Z,21.00
2018-08-09T04:01:58.946Z,21.00
2018-08-09T04:04:27.961Z,21.00
2018-08-09T04:06:56.968Z,21.00
2018-08-09T04:09:25.981Z,21.00
2018-08-09T04:11:55.093Z,21.10
2018-08-09T04:14:24.257Z,21.10
2018-08-09T04:16:53.296Z,21.10
2018-08-09T04:19:22.313Z,21.20
2018-08-09T04:21:51.417Z,21.20
2018-08-09T04:24:20.432Z,21.20
2018-08-09T04:26:49.480Z,21.20
2018-08-09T04:29:18.469Z,21.20
2018-08-09T04:31:47.464Z,21.10
2018-08-09T04:34:16.469Z,21.10
2018-08-09T04:36:45.472Z,21.00
2018-08-09T04:39:14.469Z,21.10
2018-08-09T04:41:43.491Z,21.10
2018-08-09T04:44:12.469Z,21.10
2018-08-09T04:46:41.449Z,21.10
2018-08-09T04:49:10.439Z,21.30
2018-08-09T04:51:39.458Z,21.30
2018-08-09T04:54:08.500Z,21.40
2018-08-09T04:56:37.537Z,21.50
2018-08-09T04:59:06.525Z,21.40
2018-08-09T05:01:35.541Z,21.30
2018-08-09T05:04:04.633Z,21.20
2018-08-09T05:06:33.616Z,21.10
2018-08-09T05:09:02.899Z,21.00
2018-08-09T05:11:31.984Z,21.10
2018-08-09T05:14:01.008Z,21.00
2018-08-09T05:16:30.151Z,21.00
2018-08-09T05:18:59.139Z,21.00
2018-08-09T05:21:28.155Z,21.20
2018-08-09T05:23:57.264Z,21.30
2018-08-09T05:26:26.430Z,21.40
2018-08-09T05:28:55.476Z,21.50
2018-08-09T05:31:24.495Z,21.50
2018-08-09T05:33:53.472Z,21.60
2018-08-09T05:36:23.473Z,21.70
2018-08-09T05:38:52.748Z,21.80
2018-08-09T05:41:21.800Z,21.90
2018-08-09T05:43:50.752Z,22.10
2018-08-09T05:46:19.724Z,22.10
2018-08-09T05:48:48.742Z,22.20
2018-08-09T05:51:17.761Z,22.30
2018-08-09T05:53:46.792Z,22.40
2018-08-09T05:56:16.789Z,22.50
2018-08-09T05:58:45.790Z,22.50
2018-08-09T06:01:14.839Z,22.60
2018-08-09T06:06:22.424Z,22.70
2018-08-09T06:08:51.488Z,22.80
2018-08-09T06:11:20.511Z,22.90
2018-08-09T06:13:49.553Z,22.90
2018-08-09T06:16:18.537Z,23.00
2018-08-09T06:18:47.604Z,23.10
2018-08-09T06:21:17.292Z,23.10
2018-08-09T06:23:46.335Z,23.30
2018-08-09T06:26:16.022Z,23.40
2018-08-09T06:28:45.056Z,23.50
2018-08-09T06:31:14.237Z,23.60
2018-08-09T06:33:43.333Z,23.80
2018-08-09T06:36:12.337Z,23.90
2018-08-09T06:38:41.360Z,24.10
2018-08-09T06:41:11.572Z,24.10
2018-08-09T06:43:40.877Z,24.30
2018-08-09T06:46:09.912Z,24.40
2018-08-09T06:48:38.915Z,24.50
2018-08-09T06:51:07.966Z,24.60
2018-08-09T06:53:36.950Z,24.70
2018-08-09T06:56:06.020Z,24.90
2018-08-09T06:58:35.005Z,25.10
2018-08-09T07:01:04.134Z,25.20
2018-08-09T07:03:33.218Z,25.40
2018-08-09T07:06:02.313Z,25.70
2018-08-09T07:08:31.345Z,25.90
2018-08-09T07:11:00.399Z,26.40
2018-08-09T07:13:29.374Z,26.80
2018-08-09T07:15:58.565Z,27.30
2018-08-09T07:18:27.560Z,27.70
2018-08-09T07:20:56.551Z,28.30
2018-08-09T07:25:45.916Z,28.60
2018-08-09T07:28:15.101Z,29.30
2018-08-09T07:30:44.547Z,29.50
2018-08-09T07:33:18.471Z,30.00
2018-08-09T07:35:47.676Z,30.90
2018-08-09T07:38:16.646Z,31.50
2018-08-09T07:40:45.658Z,32.20
2018-08-09T07:43:14.730Z,32.50
2018-08-09T07:45:43.825Z,32.90
2018-08-09T07:48:12.842Z,33.30
2018-08-09T07:50:41.853Z,33.70
2018-08-09T07:53:10.844Z,34.20
2018-08-09T07:55:40.665Z,34.80
2018-08-09T07:58:09.707Z,35.00
2018-08-09T08:00:38.696Z,34.90
2018-08-09T08:03:07.788Z,35.60
2018-08-09T08:05:36.846Z,35.30
2018-08-09T08:08:05.920Z,35.50
2018-08-09T08:10:34.898Z,35.80
2018-08-09T08:13:04.009Z,35.70
2018-08-09T08:15:33.040Z,35.90
2018-08-09T08:18:02.046Z,36.10
2018-08-09T08:20:31.081Z,36.90
2018-08-09T08:23:00.143Z,36.60
2018-08-09T08:25:29.733Z,37.00
2018-08-09T08:27:58.841Z,37.30
2018-08-09T08:30:27.949Z,37.40
2018-08-09T08:32:56.964Z,37.80
2018-08-09T08:35:25.979Z,37.80
2018-08-09T08:37:54.956Z,38.20
2018-08-09T08:40:23.957Z,38.40
2018-08-09T08:42:52.965Z,38.40
2018-08-09T08:45:21.956Z,38.40
2018-08-09T08:47:50.930Z,38.40
2018-08-09T08:50:19.908Z,38.30
2018-08-09T08:52:51.887Z,39.10
2018-08-09T08:55:20.905Z,38.80
2018-08-09T08:57:49.866Z,38.00
2018-08-09T09:00:18.872Z,38.00
2018-08-09T09:02:47.849Z,37.60
2018-08-09T09:05:16.908Z,37.10
2018-08-09T09:07:45.917Z,36.80
2018-08-09T09:10:15.145Z,36.70
2018-08-09T09:12:44.128Z,35.80
2018-08-09T09:15:14.223Z,35.50
2018-08-09T09:17:43.914Z,35.30
2018-08-09T09:20:15.322Z,35.00
2018-08-09T09:22:44.764Z,35.00
2018-08-09T09:25:13.872Z,34.50
2018-08-09T09:27:42.889Z,34.30
2018-08-09T09:30:16.301Z,34.10
2018-08-09T09:32:45.732Z,33.50
2018-08-09T09:35:14.794Z,33.20
2018-08-09T09:37:44.460Z,32.80
2018-08-09T09:40:14.078Z,32.70
2018-08-09T09:42:43.128Z,32.60
2018-08-09T09:45:12.141Z,32.70
2018-08-09T09:47:41.169Z,32.60
2018-08-09T09:50:11.014Z,32.30
2018-08-09T09:52:40.236Z,32.20
2018-08-09T09:55:09.444Z,32.10
2018-08-09T09:57:38.577Z,32.10
2018-08-09T10:00:12.705Z,32.10
2018-08-09T10:02:41.765Z,31.90
2018-08-09T10:05:10.805Z,32.00
2018-08-09T10:07:39.994Z,32.10
2018-08-09T10:10:09.613Z,32.20
2018-08-09T10:12:38.815Z,32.00
2018-08-09T10:15:07.905Z,32.10
2018-08-09T10:17:37.182Z,32.00
2018-08-09T10:20:12.936Z,32.00
2018-08-09T10:22:42.037Z,32.20
2018-08-09T10:25:11.121Z,32.10
2018-08-09T10:27:40.092Z,32.00
2018-08-09T10:30:09.401Z,32.00
2018-08-09T10:32:38.427Z,31.90
2018-08-09T10:35:07.632Z,31.80
2018-08-09T10:37:36.618Z,31.80
2018-08-09T10:40:05.830Z,31.80
2018-08-09T10:42:34.801Z,31.80
2018-08-09T10:45:04.100Z,31.80
2018-08-09T10:47:33.173Z,32.00
2018-08-09T10:50:02.232Z,32.00
2018-08-09T10:52:31.224Z,32.00
2018-08-09T10:55:00.817Z,32.00
2018-08-09T10:57:29.836Z,32.00
2018-08-09T10:59:58.921Z,32.10
2018-08-09T11:02:30.242Z,32.10
2018-08-09T11:04:59.316Z,32.20
2018-08-09T11:07:28.334Z,32.20
2018-08-09T11:09:57.345Z,32.30
2018-08-09T11:12:26.437Z,32.30
2018-08-09T11:14:56.095Z,32.30
2018-08-09T11:17:25.449Z,32.30
2018-08-09T11:19:54.492Z,32.30
2018-08-09T11:22:23.477Z,32.40
2018-08-09T11:24:52.496Z,32.50
2018-08-09T11:27:21.642Z,32.60
2018-08-09T11:29:50.608Z,32.60
2018-08-09T11:32:19.724Z,32.70
2018-08-09T11:34:48.856Z,32.50
2018-08-09T11:37:17.978Z,32.50
2018-08-09T11:39:46.977Z,32.50
2018-08-09T11:42:15.953Z,32.50
2018-08-09T11:44:44.977Z,32.60
2018-08-09T11:47:14.004Z,32.70
2018-08-09T11:49:43.020Z,32.70
2018-08-09T11:52:12.097Z,32.70
2018-08-09T11:54:41.073Z,32.90
2018-08-09T11:57:10.138Z,33.00
2018-08-09T11:59:39.099Z,33.20
2018-08-09T12:02:08.076Z,33.40
2018-08-09T12:04:37.110Z,33.50
2018-08-09T12:07:06.673Z,33.50
2018-08-09T12:09:35.644Z,33.60
2018-08-09T12:12:04.690Z,33.60
2018-08-09T12:14:33.713Z,33.50
2018-08-09T12:17:02.854Z,33.30
2018-08-09T12:19:31.840Z,33.30
2018-08-09T12:22:00.938Z,33.50
2018-08-09T12:24:29.941Z,33.50
2018-08-09T12:26:58.992Z,33.50
2018-08-09T12:29:28.196Z,33.50
2018-08-09T12:31:57.272Z,33.50
2018-08-09T12:34:26.262Z,33.70
2018-08-09T12:36:55.277Z,33.90
2018-08-09T12:39:24.436Z,34.00
2018-08-09T12:41:53.432Z,34.10
2018-08-09T12:44:22.425Z,34.20
2018-08-09T12:46:51.445Z,34.20
2018-08-09T12:49:20.697Z,34.30
2018-08-09T12:51:49.698Z,34.30
2018-08-09T12:54:18.685Z,34.30
2018-08-09T12:56:47.716Z,34.40
2018-08-09T12:59:16.713Z,34.50
2018-08-09T13:01:45.726Z,34.60
2018-08-09T13:04:14.781Z,34.70
2018-08-09T13:06:43.764Z,34.90
2018-08-09T13:09:12.836Z,34.80
2018-08-09T13:11:41.893Z,34.90
2018-08-09T13:14:10.976Z,35.20
2018-08-09T13:16:40.029Z,35.30
2018-08-09T13:19:09.101Z,35.60
2018-08-09T13:21:38.102Z,35.90
2018-08-09T13:24:07.202Z,35.90
2018-08-09T13:26:36.233Z,35.60
2018-08-09T13:29:08.488Z,35.40
2018-08-09T13:31:37.534Z,36.00
2018-08-09T13:34:06.647Z,37.10
2018-08-09T13:36:35.672Z,37.50
2018-08-09T13:39:08.362Z,38.00
2018-08-09T13:41:37.533Z,38.80
2018-08-09T13:44:06.588Z,39.20
2018-08-09T13:46:35.593Z,39.80
2018-08-09T13:49:05.247Z,39.90
2018-08-09T13:51:34.572Z,40.50
2018-08-09T13:54:03.596Z,40.70
2018-08-09T13:56:32.667Z,41.20
2018-08-09T13:59:02.181Z,41.20
2018-08-09T14:01:31.214Z,41.40
2018-08-09T14:04:00.233Z,41.70
2018-08-09T14:06:29.278Z,42.40
2018-08-09T14:08:58.313Z,42.90
2018-08-09T14:11:27.307Z,42.90
2018-08-09T14:13:56.529Z,42.90
2018-08-09T14:16:25.614Z,42.20
2018-08-09T14:18:54.596Z,42.50
2018-08-09T14:21:23.637Z,42.90
2018-08-09T14:23:52.664Z,42.70
2018-08-09T14:26:21.687Z,42.40
2018-08-09T14:28:50.716Z,43.10
2018-08-09T14:31:19.701Z,43.20
2018-08-09T14:33:48.761Z,42.90
2018-08-09T14:36:18.065Z,44.00
2018-08-09T14:38:47.101Z,43.60
2018-08-09T14:41:16.165Z,43.50
2018-08-09T14:43:45.255Z,43.80
2018-08-09T14:46:14.264Z,43.40
2018-08-09T14:48:43.362Z,42.50
2018-08-09T14:51:12.777Z,42.30
2018-08-09T14:53:41.833Z,42.20
2018-08-09T14:56:10.789Z,42.10
2018-08-09T14:58:39.827Z,41.40
2018-08-09T15:01:08.798Z,40.50
2018-08-09T15:03:37.843Z,39.20
2018-08-09T15:06:06.980Z,38.40
2018-08-09T15:08:37.349Z,37.90
2018-08-09T15:11:07.097Z,37.70
2018-08-09T15:13:36.109Z,37.50
2018-08-09T15:16:05.168Z,37.20
2018-08-09T15:18:34.185Z,37.40
2018-08-09T15:21:03.272Z,37.60
2018-08-09T15:23:32.481Z,37.80
2018-08-09T15:26:01.477Z,37.80
2018-08-09T15:28:30.505Z,37.60
2018-08-09T15:30:59.554Z,37.40
2018-08-09T15:33:28.571Z,37.30
2018-08-09T15:35:57.636Z,37.10
2018-08-09T15:38:26.721Z,36.90
2018-08-09T15:40:56.065Z,36.80
2018-08-09T15:43:25.100Z,36.50
2018-08-09T15:45:54.183Z,36.50
2018-08-09T15:48:23.208Z,36.60
2018-08-09T15:50:52.221Z,36.50
2018-08-09T15:53:21.250Z,36.60
2018-08-09T15:55:50.241Z,36.40
2018-08-09T15:58:19.284Z,36.60
2018-08-09T16:00:48.368Z,36.70
2018-08-09T16:03:17.411Z,37.00
2018-08-09T16:05:46.477Z,37.50
2018-08-09T16:08:15.552Z,37.60
2018-08-09T16:10:44.594Z,38.00
2018-08-09T16:13:13.614Z,37.40
2018-08-09T16:15:42.814Z,36.80
2018-08-09T16:18:11.833Z,36.30
2018-08-09T16:20:40.928Z,35.80
2018-08-09T16:23:10.022Z,35.50
2018-08-09T16:25:38.973Z,35.10
2018-08-09T16:28:07.980Z,34.90
2018-08-09T16:30:36.964Z,34.80
2018-08-09T16:33:06.248Z,34.70
2018-08-09T16:35:35.338Z,34.60
2018-08-09T16:38:04.349Z,34.60
2018-08-09T16:40:33.434Z,34.10
2018-08-09T16:43:02.426Z,33.50
2018-08-09T16:45:31.679Z,32.90
2018-08-09T16:48:01.193Z,32.40
2018-08-09T16:50:31.539Z,32.20
2018-08-09T16:53:00.565Z,31.90
2018-08-09T16:55:29.721Z,31.80
2018-08-09T16:57:59.066Z,31.60
2018-08-09T17:00:28.173Z,31.50
2018-08-09T17:02:57.195Z,31.30
2018-08-09T17:05:27.260Z,31.00
2018-08-09T17:07:56.829Z,30.70
2018-08-09T17:10:26.256Z,30.70
2018-08-09T17:12:55.298Z,30.70
2018-08-09T17:15:26.427Z,30.70
2018-08-09T17:17:55.792Z,30.50
2018-08-09T17:20:27.176Z,30.40
2018-08-09T17:22:56.460Z,30.30
2018-08-09T17:25:25.609Z,30.00
2018-08-09T17:27:54.743Z,30.00
2018-08-09T17:30:26.233Z,29.90
2018-08-09T17:32:55.644Z,29.80
2018-08-09T17:35:24.689Z,29.60
2018-08-09T17:37:54.469Z,29.50
2018-08-09T17:40:27.805Z,29.50
2018-08-09T17:42:57.741Z,29.30
2018-08-09T17:45:28.325Z,29.30
2018-08-09T17:47:57.348Z,29.20
2018-08-09T17:50:26.340Z,29.10
2018-08-09T17:52:57.092Z,29.00
2018-08-09T17:55:26.164Z,28.80
2018-08-09T17:57:55.177Z,28.70
2018-08-09T18:00:27.624Z,28.70
2018-08-09T18:02:56.732Z,28.70
2018-08-09T18:05:25.781Z,28.50
2018-08-09T18:07:55.287Z,28.40
2018-08-09T18:10:28.414Z,28.40
2018-08-09T18:12:57.450Z,28.30
2018-08-09T18:15:27.544Z,28.20
2018-08-09T18:17:57.169Z,28.20
2018-08-09T18:20:29.171Z,28.20
2018-08-09T18:22:58.304Z,28.10
2018-08-09T18:28:14.705Z,28.00
2018-08-09T18:30:43.709Z,28.00
2018-08-09T18:33:12.708Z,27.80
2018-08-09T18:35:41.858Z,27.80
2018-08-09T18:38:10.952Z,27.80
2018-08-09T18:40:40.010Z,27.80
2018-08-09T18:43:09.163Z,27.70
2018-08-09T18:45:38.267Z,27.60
2018-08-09T18:48:07.457Z,27.50
2018-08-09T18:50:36.556Z,27.50
2018-08-09T18:53:05.625Z,27.50
2018-08-09T18:55:34.705Z,27.40
2018-08-09T18:58:03.997Z,27.30
2018-08-09T19:00:33.070Z,27.30
2018-08-09T19:03:02.086Z,27.30
2018-08-09T19:05:31.127Z,27.20
2018-08-09T19:08:00.104Z,27.10
2018-08-09T19:10:30.240Z,27.00
2018-08-09T19:12:59.429Z,26.90
2018-08-09T19:15:28.612Z,26.90
2018-08-09T19:17:57.805Z,26.90
2018-08-09T19:20:30.109Z,26.80
2018-08-09T19:22:59.284Z,26.70
2018-08-09T19:25:28.301Z,26.70
2018-08-09T19:27:57.533Z,26.60
2018-08-09T19:30:28.024Z,26.60
2018-08-09T19:32:57.075Z,26.60
2018-08-09T19:35:26.092Z,26.60
2018-08-09T19:37:55.108Z,26.60
2018-08-09T19:40:27.137Z,26.50
2018-08-09T19:42:56.300Z,26.40
2018-08-09T19:45:25.389Z,26.30
2018-08-09T19:47:54.425Z,26.30
2018-08-09T19:50:24.457Z,26.20
2018-08-09T19:52:53.540Z,26.20
2018-08-09T19:55:24.960Z,26.20
2018-08-09T19:57:54.315Z,26.10
2018-08-09T20:00:25.106Z,26.00
2018-08-09T20:02:54.250Z,26.00
2018-08-09T20:05:24.263Z,26.00
2018-08-09T20:07:53.593Z,25.90
2018-08-09T20:10:22.994Z,25.80
2018-08-09T20:12:52.786Z,25.90
2018-08-09T20:15:24.047Z,25.80
2018-08-09T20:17:53.195Z,25.80
2018-08-09T20:20:23.831Z,25.70
2018-08-09T20:22:53.283Z,25.70
2018-08-09T20:25:22.558Z,25.60
2018-08-09T20:27:51.679Z,25.50
2018-08-09T20:30:20.735Z,25.50
2018-08-09T20:32:49.842Z,25.40
2018-08-09T20:35:21.455Z,25.30
2018-08-09T20:37:52.024Z,25.30
2018-08-09T20:40:22.407Z,25.40
2018-08-09T20:42:52.777Z,25.30
2018-08-09T20:45:23.266Z,25.20
2018-08-09T20:47:52.756Z,25.20
2018-08-09T20:50:27.270Z,25.20
2018-08-09T20:53:00.837Z,25.10
2018-08-09T20:55:29.952Z,25.20
2018-08-09T20:57:58.970Z,25.10
2018-08-09T21:00:29.671Z,25.10
2018-08-09T21:03:00.035Z,25.00
2018-08-09T21:05:31.852Z,25.00
2018-08-09T21:08:03.038Z,24.90
2018-08-09T21:10:33.292Z,24.90
2018-08-09T21:13:02.318Z,24.90
2018-08-09T21:15:31.429Z,24.90
2018-08-09T21:18:00.514Z,24.70
2018-08-09T21:20:29.605Z,24.60
2018-08-09T21:22:59.609Z,24.60
2018-08-09T21:25:28.576Z,24.50
2018-08-09T21:27:57.600Z,24.50
2018-08-09T21:30:27.742Z,24.50
2018-08-09T21:32:56.973Z,24.40
2018-08-09T21:35:26.714Z,24.50
2018-08-09T21:37:55.832Z,24.40
2018-08-09T21:40:24.906Z,24.40
2018-08-09T21:42:54.026Z,24.30
2018-08-09T21:45:24.310Z,24.40
2018-08-09T21:47:53.496Z,24.30
2018-08-09T21:50:24.927Z,24.30
2018-08-09T21:52:54.850Z,24.20
2018-08-09T21:55:24.302Z,24.20
2018-08-09T21:57:54.165Z,24.20
2018-08-09T22:00:58.077Z,24.20
2018-08-09T22:03:29.440Z,24.20
2018-08-09T22:06:04.791Z,24.20
2018-08-09T22:08:40.120Z,24.20
2018-08-09T22:11:15.886Z,24.20
2018-08-09T22:13:50.996Z,24.20
2018-08-09T22:18:29.712Z,24.20
2018-08-09T22:21:04.175Z,24.20
2018-08-09T22:23:33.494Z,24.10
2018-08-09T22:26:02.768Z,24.00
2018-08-09T22:28:33.450Z,24.00
2018-08-09T22:31:02.655Z,24.00
2018-08-09T22:33:32.000Z,24.00
2018-08-09T22:36:01.033Z,23.90
2018-08-09T22:38:31.521Z,23.90
2018-08-09T22:41:02.201Z,24.00
2018-08-09T22:43:31.290Z,24.00
2018-08-09T22:46:01.499Z,23.90
2018-08-09T22:48:30.710Z,24.00
2018-08-09T22:51:00.461Z,24.00
2018-08-09T22:53:29.626Z,23.90
2018-08-09T22:55:58.742Z,23.90
2018-08-09T22:58:28.685Z,23.90
2018-08-09T23:00:57.765Z,23.90
2018-08-09T23:03:26.925Z,23.90
2018-08-09T23:05:55.937Z,23.90
2018-08-09T23:08:24.977Z,24.00
2018-08-09T23:10:54.056Z,23.90
2018-08-09T23:13:23.198Z,24.00
2018-08-09T23:15:52.209Z,23.90
2018-08-09T23:18:21.425Z,23.90
2018-08-09T23:20:50.453Z,23.90
2018-08-09T23:23:19.487Z,23.80
2018-08-09T23:25:48.461Z,23.80
2018-08-09T23:28:17.437Z,23.80
2018-08-09T23:30:46.628Z,23.80
2018-08-09T23:33:17.278Z,23.80
2018-08-09T23:35:46.350Z,23.70
2018-08-09T23:38:15.355Z,23.70
2018-08-09T23:40:44.339Z,23.70
2018-08-09T23:43:13.731Z,23.70
2018-08-09T23:45:42.742Z,23.70
2018-08-09T23:48:11.766Z,23.70
2018-08-09T23:50:41.655Z,23.70
2018-08-09T23:53:10.689Z,23.60
2018-08-09T23:55:40.079Z,23.70
2018-08-09T23:58:09.063Z,23.70
